createdAt,value
2017-11-17T00:00:59.532Z,0
2017-11-17T00:01:59.515Z,0
2017-11-17T00:02:59.225Z,0
2017-11-17T00:03:59.208Z,0
2017-11-17T00:04:59.457Z,0
2017-11-17T00:05:59.442Z,0
2017-11-17T00:06:59.152Z,0
2017-11-17T00:07:59.138Z,0
2017-11-17T00:08:59.390Z,0
2017-11-17T00:09:59.124Z,0
2017-11-17T00:10:59.085Z,0
2017-11-17T00:11:59.065Z,0
2017-11-17T00:12:59.049Z,0
2017-11-17T00:13:59.313Z,0
2017-11-17T00:14:59.280Z,0
2017-11-17T00:15:59.275Z,0
2017-11-17T00:16:59.251Z,0
2017-11-17T00:17:59.011Z,0
2017-11-17T00:18:59.213Z,0
2017-11-17T00:19:59.194Z,0
2017-11-17T00:20:59.174Z,0
2017-11-17T00:21:59.159Z,0
2017-11-17T00:22:58.921Z,0
2017-11-17T00:23:59.123Z,0
2017-11-17T00:24:58.838Z,0
2017-11-17T00:25:59.096Z,0
2017-11-17T00:26:59.070Z,0
2017-11-17T00:27:59.106Z,0
2017-11-17T00:28:59.041Z,0
2017-11-17T00:29:59.019Z,0
2017-11-17T00:30:59.009Z,0
2017-11-17T00:31:58.983Z,0
2017-11-17T00:32:58.964Z,0
2017-11-17T00:33:58.948Z,0
2017-11-17T00:34:58.927Z,0
2017-11-17T00:35:58.644Z,0
2017-11-17T00:36:58.626Z,0
2017-11-17T00:37:58.610Z,0
2017-11-17T00:38:58.590Z,0
2017-11-17T00:39:58.844Z,0
2017-11-17T00:40:58.834Z,0
2017-11-17T00:41:58.804Z,0
2017-11-17T00:42:58.800Z,0
2017-11-17T00:43:58.776Z,0
2017-11-17T00:44:58.483Z,0
2017-11-17T00:45:58.733Z,0
2017-11-17T00:46:58.721Z,0
2017-11-17T00:47:58.700Z,0
2017-11-17T00:48:58.414Z,0
2017-11-17T00:49:58.394Z,0
2017-11-17T00:50:58.649Z,0
2017-11-17T00:51:58.366Z,0
2017-11-17T00:52:58.344Z,0
2017-11-17T00:53:58.649Z,0
2017-11-17T00:54:58.605Z,0
2017-11-17T00:55:58.572Z,0
2017-11-17T00:56:58.277Z,0
2017-11-17T00:57:58.534Z,0
2017-11-17T00:58:58.239Z,0
2017-11-17T00:59:58.222Z,0
2017-11-17T01:00:58.477Z,0
2017-11-17T01:01:58.188Z,0
2017-11-17T01:02:58.167Z,0
2017-11-17T01:03:58.425Z,0
2017-11-17T01:04:58.403Z,0
2017-11-17T01:05:58.396Z,0
2017-11-17T01:06:58.369Z,0
2017-11-17T01:07:58.080Z,0
2017-11-17T01:08:58.331Z,0
2017-11-17T01:09:58.321Z,0
2017-11-17T01:10:58.304Z,0
2017-11-17T01:11:58.341Z,0
2017-11-17T01:12:58.265Z,0
2017-11-17T01:13:58.247Z,0
2017-11-17T01:14:57.961Z,0
2017-11-17T01:15:58.209Z,0
2017-11-17T01:16:58.192Z,0
2017-11-17T01:17:57.909Z,0
2017-11-17T01:18:58.209Z,0
2017-11-17T01:19:57.872Z,0
2017-11-17T01:20:58.132Z,0
2017-11-17T01:21:58.103Z,0
2017-11-17T01:22:57.820Z,0
2017-11-17T01:23:58.084Z,0
2017-11-17T01:24:57.790Z,0
2017-11-17T01:25:57.770Z,0
2017-11-17T01:26:58.023Z,0
2017-11-17T01:27:57.733Z,0
2017-11-17T01:28:57.717Z,0
2017-11-17T01:29:57.969Z,0
2017-11-17T01:30:57.955Z,0
2017-11-17T01:31:57.935Z,0
2017-11-17T01:32:57.917Z,0
2017-11-17T01:33:57.900Z,0
2017-11-17T01:34:57.883Z,0
2017-11-17T01:35:57.594Z,0
2017-11-17T01:36:57.581Z,0
2017-11-17T01:37:57.840Z,0
2017-11-17T01:38:57.811Z,0
2017-11-17T01:39:57.801Z,0
2017-11-17T01:40:57.778Z,0
2017-11-17T01:41:57.762Z,0
2017-11-17T01:42:57.471Z,0
2017-11-17T01:43:57.728Z,0
2017-11-17T01:44:57.438Z,0
2017-11-17T01:45:57.701Z,0
2017-11-17T01:46:57.674Z,0
2017-11-17T01:47:57.388Z,0
2017-11-17T01:48:57.640Z,0
2017-11-17T01:49:57.626Z,0
2017-11-17T01:50:57.606Z,0
2017-11-17T01:51:57.320Z,0
2017-11-17T01:52:57.316Z,0
2017-11-17T01:53:57.558Z,0
2017-11-17T01:54:57.536Z,0
2017-11-17T01:55:57.521Z,0
2017-11-17T01:56:57.240Z,0
2017-11-17T01:57:57.484Z,0
2017-11-17T01:58:57.676Z,0
2017-11-17T01:59:57.447Z,0
2017-11-17T02:00:57.164Z,0
2017-11-17T02:01:57.419Z,0
2017-11-17T02:02:57.400Z,0
2017-11-17T02:03:57.121Z,0
2017-11-17T02:04:57.426Z,0
2017-11-17T02:05:57.076Z,0
2017-11-17T02:06:57.332Z,0
2017-11-17T02:07:57.314Z,0
2017-11-17T02:08:57.305Z,0
2017-11-17T02:09:57.009Z,0
2017-11-17T02:10:57.296Z,0
2017-11-17T02:11:56.972Z,0
2017-11-17T02:12:57.231Z,0
2017-11-17T02:13:57.212Z,0
2017-11-17T02:14:56.937Z,0
2017-11-17T02:15:57.176Z,0
2017-11-17T02:16:56.889Z,0
2017-11-17T02:17:56.873Z,0
2017-11-17T02:18:57.130Z,0
2017-11-17T02:19:57.108Z,0
2017-11-17T02:20:57.090Z,0
2017-11-17T02:21:56.803Z,0
2017-11-17T02:22:56.785Z,0
2017-11-17T02:23:57.036Z,0
2017-11-17T02:24:57.029Z,0
2017-11-17T02:25:57.002Z,0
2017-11-17T02:26:56.716Z,0
2017-11-17T02:27:56.977Z,0
2017-11-17T02:28:56.954Z,0
2017-11-17T02:29:56.666Z,0
2017-11-17T02:30:56.935Z,0
2017-11-17T02:31:56.630Z,0
2017-11-17T02:32:56.624Z,0
2017-11-17T02:33:56.869Z,0
2017-11-17T02:34:56.849Z,0
2017-11-17T02:35:56.833Z,0
2017-11-17T02:36:56.820Z,0
2017-11-17T02:37:56.801Z,0
2017-11-17T02:38:56.781Z,0
2017-11-17T02:39:56.762Z,0
2017-11-17T02:40:56.803Z,0
2017-11-17T02:41:56.767Z,0
2017-11-17T02:42:56.712Z,0
2017-11-17T02:43:56.429Z,0
2017-11-17T02:44:56.689Z,0
2017-11-17T02:45:56.400Z,0
2017-11-17T02:46:56.381Z,0
2017-11-17T02:47:56.636Z,0
2017-11-17T02:48:56.616Z,0
2017-11-17T02:49:56.598Z,0
2017-11-17T02:50:56.306Z,0
2017-11-17T02:51:56.560Z,0
2017-11-17T02:52:56.540Z,0
2017-11-17T02:53:56.257Z,0
2017-11-17T02:54:56.238Z,0
2017-11-17T02:55:56.269Z,0
2017-11-17T02:56:56.468Z,0
2017-11-17T02:57:56.188Z,0
2017-11-17T02:58:56.438Z,0
2017-11-17T02:59:56.419Z,0
2017-11-17T03:00:56.408Z,0
2017-11-17T03:01:56.117Z,0
2017-11-17T03:02:56.099Z,0
2017-11-17T03:03:56.363Z,0
2017-11-17T03:04:56.063Z,0
2017-11-17T03:05:56.321Z,0
2017-11-17T03:06:56.303Z,0
2017-11-17T03:07:56.279Z,0
2017-11-17T03:08:55.997Z,0
2017-11-17T03:09:56.247Z,0
2017-11-17T03:10:55.963Z,0
2017-11-17T03:11:55.943Z,0
2017-11-17T03:12:56.197Z,0
2017-11-17T03:13:56.181Z,0
2017-11-17T03:14:55.891Z,0
2017-11-17T03:15:56.146Z,0
2017-11-17T03:16:55.855Z,0
2017-11-17T03:17:55.839Z,0
2017-11-17T03:18:56.095Z,0
2017-11-17T03:19:56.077Z,0
2017-11-17T03:20:55.790Z,0
2017-11-17T03:21:56.071Z,0
2017-11-17T03:22:56.027Z,0
2017-11-17T03:23:55.739Z,0
2017-11-17T03:24:55.993Z,0
2017-11-17T03:25:55.969Z,0
2017-11-17T03:26:55.686Z,0
2017-11-17T03:27:55.936Z,0
2017-11-17T03:28:55.650Z,0
2017-11-17T03:29:55.637Z,0
2017-11-17T03:30:55.897Z,0
2017-11-17T03:31:55.869Z,0
2017-11-17T03:32:55.847Z,0
2017-11-17T03:33:55.560Z,0
2017-11-17T03:34:55.812Z,0
2017-11-17T03:35:55.799Z,0
2017-11-17T03:36:55.832Z,0
2017-11-17T03:37:55.766Z,0
2017-11-17T03:38:55.473Z,0
2017-11-17T03:39:55.732Z,0
2017-11-17T03:40:55.438Z,0
2017-11-17T03:41:55.692Z,0
2017-11-17T03:42:55.681Z,0
2017-11-17T03:43:55.383Z,0
2017-11-17T03:44:55.370Z,0
2017-11-17T03:45:55.618Z,0
2017-11-17T03:46:55.602Z,0
2017-11-17T03:47:55.583Z,0
2017-11-17T03:48:55.584Z,0
2017-11-17T03:49:55.549Z,0
2017-11-17T03:50:55.530Z,0
2017-11-17T03:51:55.245Z,0
2017-11-17T03:52:55.500Z,0
2017-11-17T03:53:55.210Z,0
2017-11-17T03:54:55.197Z,0
2017-11-17T03:55:55.172Z,0
2017-11-17T03:56:55.158Z,0
2017-11-17T03:57:55.409Z,0
2017-11-17T03:58:55.591Z,0
2017-11-17T03:59:55.103Z,0
2017-11-17T04:00:55.355Z,0
2017-11-17T04:01:55.337Z,0
2017-11-17T04:02:55.324Z,0
2017-11-17T04:03:55.035Z,0
2017-11-17T04:04:55.016Z,0
2017-11-17T04:05:55.281Z,0
2017-11-17T04:06:55.248Z,0
2017-11-17T04:07:55.234Z,0
2017-11-17T04:08:54.950Z,0
2017-11-17T04:09:54.925Z,0
2017-11-17T04:10:54.908Z,0
2017-11-17T04:11:55.162Z,0
2017-11-17T04:12:55.142Z,0
2017-11-17T04:13:55.176Z,0
2017-11-17T04:14:54.836Z,0
2017-11-17T04:15:55.099Z,0
2017-11-17T04:16:55.079Z,0
2017-11-17T04:17:54.791Z,0
2017-11-17T04:18:54.766Z,0
2017-11-17T04:19:54.750Z,0
2017-11-17T04:20:54.755Z,0
2017-11-17T04:21:55.002Z,0
2017-11-17T04:22:54.698Z,0
2017-11-17T04:23:54.958Z,0
2017-11-17T04:24:54.665Z,0
2017-11-17T04:25:54.640Z,0
2017-11-17T04:26:54.892Z,0
2017-11-17T04:27:54.876Z,0
2017-11-17T04:28:54.854Z,0
2017-11-17T04:29:54.577Z,0
2017-11-17T04:30:54.549Z,0
2017-11-17T04:31:54.534Z,0
2017-11-17T04:32:54.512Z,0
2017-11-17T04:33:54.762Z,0
2017-11-17T04:34:54.744Z,0
2017-11-17T04:35:54.456Z,0
2017-11-17T04:36:54.715Z,0
2017-11-17T04:37:54.699Z,0
2017-11-17T04:38:54.405Z,0
2017-11-17T04:39:54.395Z,0
2017-11-17T04:40:54.639Z,0
2017-11-17T04:41:54.618Z,0
2017-11-17T04:42:54.599Z,0
2017-11-17T04:43:54.582Z,0
2017-11-17T04:44:54.293Z,0
2017-11-17T04:45:54.548Z,0
2017-11-17T04:46:54.256Z,0
2017-11-17T04:47:54.241Z,0
2017-11-17T04:48:54.527Z,0
2017-11-17T04:49:54.476Z,0
2017-11-17T04:50:54.198Z,0
2017-11-17T04:51:54.446Z,0
2017-11-17T04:52:54.415Z,0
2017-11-17T04:53:54.127Z,0
2017-11-17T04:54:54.376Z,0
2017-11-17T04:55:54.355Z,0
2017-11-17T04:56:54.340Z,0
2017-11-17T04:57:54.319Z,0
2017-11-17T04:58:54.033Z,0
2017-11-17T04:59:54.018Z,0
2017-11-17T05:00:54.286Z,0
2017-11-17T05:01:53.983Z,0
2017-11-17T05:02:53.958Z,0
2017-11-17T05:03:54.212Z,0
2017-11-17T05:04:53.921Z,0
2017-11-17T05:05:54.191Z,0
2017-11-17T05:06:54.160Z,0
2017-11-17T05:07:53.868Z,0
2017-11-17T05:08:53.844Z,0
2017-11-17T05:09:54.108Z,0
2017-11-17T05:10:54.082Z,0
2017-11-17T05:11:54.059Z,0
2017-11-17T05:12:53.773Z,0
2017-11-17T05:13:54.020Z,0
2017-11-17T05:14:54.013Z,0
2017-11-17T05:15:53.718Z,0
2017-11-17T05:16:53.962Z,0
2017-11-17T05:17:53.940Z,0
2017-11-17T05:18:53.655Z,0
2017-11-17T05:19:53.640Z,0
2017-11-17T05:20:53.895Z,0
2017-11-17T05:21:53.599Z,0
2017-11-17T05:22:53.850Z,0
2017-11-17T05:23:53.880Z,0
2017-11-17T05:24:53.823Z,0
2017-11-17T05:25:53.799Z,0
2017-11-17T05:26:53.503Z,0
2017-11-17T05:27:53.486Z,0
2017-11-17T05:28:53.469Z,0
2017-11-17T05:29:53.718Z,0
2017-11-17T05:30:53.699Z,0
2017-11-17T05:31:53.676Z,0
2017-11-17T05:32:53.389Z,0
2017-11-17T05:33:53.689Z,0
2017-11-17T05:34:53.349Z,0
2017-11-17T05:35:53.599Z,0
2017-11-17T05:36:53.583Z,0
2017-11-17T05:37:53.562Z,0
2017-11-17T05:38:53.273Z,0
2017-11-17T05:39:53.524Z,0
2017-11-17T05:40:53.507Z,0
2017-11-17T05:41:53.485Z,0
2017-11-17T05:42:53.200Z,0
2017-11-17T05:43:53.449Z,0
2017-11-17T05:44:53.165Z,0
2017-11-17T05:45:53.139Z,0
2017-11-17T05:46:53.393Z,0
2017-11-17T05:47:53.371Z,0
2017-11-17T05:48:53.354Z,0
2017-11-17T05:49:53.334Z,0
2017-11-17T05:50:53.315Z,0
2017-11-17T05:51:53.294Z,0
2017-11-17T05:52:53.276Z,0
2017-11-17T05:53:52.984Z,0
2017-11-17T05:54:52.963Z,0
2017-11-17T05:55:53.230Z,0
2017-11-17T05:56:52.925Z,0
2017-11-17T05:57:52.909Z,0
2017-11-17T05:58:53.090Z,0
2017-11-17T05:59:52.868Z,0
2017-11-17T06:00:52.847Z,0
2017-11-17T06:01:52.828Z,0
2017-11-17T06:02:53.077Z,0
2017-11-17T06:03:53.055Z,0
2017-11-17T06:04:53.054Z,0
2017-11-17T06:05:52.762Z,0
2017-11-17T06:06:53.002Z,0
2017-11-17T06:07:52.982Z,0
2017-11-17T06:08:52.966Z,0
2017-11-17T06:09:52.942Z,0
2017-11-17T06:10:52.652Z,0
2017-11-17T06:11:52.903Z,0
2017-11-17T06:12:52.624Z,0
2017-11-17T06:13:52.873Z,0
2017-11-17T06:14:52.576Z,0
2017-11-17T06:15:52.551Z,0
2017-11-17T06:16:52.806Z,0
2017-11-17T06:17:52.513Z,0
2017-11-17T06:18:52.497Z,0
2017-11-17T06:19:52.751Z,0
2017-11-17T06:20:52.454Z,0
2017-11-17T06:21:52.706Z,0
2017-11-17T06:22:52.411Z,0
2017-11-17T06:23:52.667Z,0
2017-11-17T06:24:52.379Z,0
2017-11-17T06:25:52.632Z,0
2017-11-17T06:26:52.604Z,0
2017-11-17T06:27:52.584Z,0
2017-11-17T06:28:52.566Z,0
2017-11-17T06:29:52.546Z,0
2017-11-17T06:30:52.256Z,0
2017-11-17T06:31:52.511Z,0
2017-11-17T06:32:52.494Z,0
2017-11-17T06:33:52.464Z,0
2017-11-17T06:34:52.175Z,0
2017-11-17T06:35:52.425Z,0
2017-11-17T06:36:52.407Z,0
2017-11-17T06:37:52.119Z,0
2017-11-17T06:38:52.098Z,0
2017-11-17T06:39:52.076Z,0
2017-11-17T06:40:52.324Z,0
2017-11-17T06:41:52.034Z,0
2017-11-17T06:42:52.291Z,0
2017-11-17T06:43:52.275Z,0
2017-11-17T06:44:51.977Z,0
2017-11-17T06:45:51.955Z,0
2017-11-17T06:46:51.935Z,0
2017-11-17T06:47:51.911Z,0
2017-11-17T06:48:52.163Z,0
2017-11-17T06:49:52.143Z,0
2017-11-17T06:50:52.124Z,0
2017-11-17T06:51:51.833Z,0
2017-11-17T06:52:51.813Z,0
2017-11-17T06:53:51.796Z,0
2017-11-17T06:54:52.046Z,0
2017-11-17T06:55:52.018Z,0
2017-11-17T06:56:51.741Z,0
2017-11-17T06:57:51.712Z,0
2017-11-17T06:58:51.698Z,0
2017-11-17T06:59:51.935Z,0
2017-11-17T07:00:51.653Z,0
2017-11-17T07:01:51.628Z,0
2017-11-17T07:02:51.881Z,0
2017-11-17T07:03:51.859Z,0
2017-11-17T07:04:51.567Z,0
2017-11-17T07:05:51.546Z,0
2017-11-17T07:06:51.524Z,0
2017-11-17T07:07:51.503Z,0
2017-11-17T07:08:51.487Z,0
2017-11-17T07:09:51.740Z,0
2017-11-17T07:10:51.449Z,0
2017-11-17T07:11:51.694Z,0
2017-11-17T07:12:51.672Z,0
2017-11-17T07:13:51.383Z,0
2017-11-17T07:14:51.365Z,0
2017-11-17T07:15:51.609Z,0
2017-11-17T07:16:51.321Z,0
2017-11-17T07:17:51.569Z,0
2017-11-17T07:18:51.548Z,0
2017-11-17T07:19:51.261Z,0
2017-11-17T07:20:51.557Z,0
2017-11-17T07:21:51.223Z,0
2017-11-17T07:22:51.467Z,0
2017-11-17T07:23:51.451Z,0
2017-11-17T07:24:51.432Z,0
2017-11-17T07:25:51.408Z,0
2017-11-17T07:26:51.125Z,0
2017-11-17T07:27:51.370Z,0
2017-11-17T07:28:51.352Z,0
2017-11-17T07:29:51.324Z,0
2017-11-17T07:30:51.307Z,0
2017-11-17T07:31:51.285Z,0
2017-11-17T07:32:51.264Z,0
2017-11-17T07:33:50.972Z,0
2017-11-17T07:34:50.951Z,0
2017-11-17T07:35:51.202Z,0
2017-11-17T07:36:51.186Z,0
2017-11-17T07:37:51.158Z,0
2017-11-17T07:38:50.876Z,0
2017-11-17T07:39:50.850Z,0
2017-11-17T07:40:51.110Z,0
2017-11-17T07:41:50.814Z,0
2017-11-17T07:42:51.057Z,0
2017-11-17T07:43:51.041Z,0
2017-11-17T07:44:51.019Z,0
2017-11-17T07:45:50.994Z,0
2017-11-17T07:46:50.706Z,0
2017-11-17T07:47:50.958Z,0
2017-11-17T07:48:50.667Z,0
2017-11-17T07:49:50.648Z,0
2017-11-17T07:50:50.913Z,0
2017-11-17T07:51:50.606Z,0
2017-11-17T07:52:50.584Z,0
2017-11-17T07:53:50.563Z,0
2017-11-17T07:54:50.543Z,0
2017-11-17T07:55:50.523Z,0
2017-11-17T07:56:50.556Z,0
2017-11-17T07:57:50.755Z,0
2017-11-17T07:58:50.934Z,0
2017-11-17T07:59:50.452Z,0
2017-11-17T08:00:50.428Z,0
2017-11-17T08:01:50.669Z,0
2017-11-17T08:02:50.653Z,0
2017-11-17T08:03:50.360Z,0
2017-11-17T08:04:50.609Z,0
2017-11-17T08:05:50.597Z,0
2017-11-17T08:06:50.300Z,0
2017-11-17T08:07:50.545Z,0
2017-11-17T08:08:50.259Z,0
2017-11-17T08:09:50.510Z,0
2017-11-17T08:10:50.218Z,0
2017-11-17T08:11:50.463Z,0
2017-11-17T08:12:50.181Z,0
2017-11-17T08:13:50.432Z,0
2017-11-17T08:14:50.136Z,0
2017-11-17T08:15:50.117Z,0
2017-11-17T08:16:50.101Z,0
2017-11-17T08:17:50.074Z,0
2017-11-17T08:18:50.055Z,0
2017-11-17T08:19:50.308Z,0
2017-11-17T08:20:50.288Z,0
2017-11-17T08:21:50.269Z,0
2017-11-17T08:22:49.984Z,0
2017-11-17T08:23:49.958Z,0
2017-11-17T08:24:50.207Z,0
2017-11-17T08:25:49.915Z,0
2017-11-17T08:26:50.165Z,0
2017-11-17T08:27:49.892Z,0
2017-11-17T08:28:50.128Z,0
2017-11-17T08:29:49.837Z,0
2017-11-17T08:30:49.817Z,0
2017-11-17T08:31:49.799Z,0
2017-11-17T08:32:50.045Z,0
2017-11-17T08:33:50.027Z,0
2017-11-17T08:34:50.007Z,0
2017-11-17T08:35:49.720Z,0
2017-11-17T08:36:49.966Z,0
2017-11-17T08:37:49.682Z,0
2017-11-17T08:38:49.926Z,0
2017-11-17T08:39:49.649Z,0
2017-11-17T08:40:49.898Z,0
2017-11-17T08:41:49.596Z,0
2017-11-17T08:42:49.845Z,0
2017-11-17T08:43:49.837Z,0
2017-11-17T08:44:49.536Z,0
2017-11-17T08:45:49.520Z,0
2017-11-17T08:46:49.765Z,0
2017-11-17T08:47:49.476Z,0
2017-11-17T08:48:49.461Z,0
2017-11-17T08:49:49.714Z,0
2017-11-17T08:50:49.433Z,0
2017-11-17T08:51:49.399Z,0
2017-11-17T08:52:49.649Z,0
2017-11-17T08:53:49.631Z,0
2017-11-17T08:54:49.608Z,0
2017-11-17T08:55:49.590Z,0
2017-11-17T08:56:49.567Z,0
2017-11-17T08:57:49.547Z,0
2017-11-17T08:58:49.533Z,0
2017-11-17T08:59:49.509Z,0
2017-11-17T09:00:49.494Z,0
2017-11-17T09:01:49.473Z,0
2017-11-17T09:02:49.455Z,0
2017-11-17T09:03:49.440Z,0
2017-11-17T09:04:49.417Z,0
2017-11-17T09:05:49.127Z,0
2017-11-17T09:06:49.374Z,0
2017-11-17T09:07:49.085Z,0
2017-11-17T09:08:49.333Z,0
2017-11-17T09:09:49.047Z,0
2017-11-17T09:10:49.022Z,0
2017-11-17T09:11:49.284Z,0
2017-11-17T09:12:48.985Z,0
2017-11-17T09:13:49.240Z,0
2017-11-17T09:14:49.221Z,0
2017-11-17T09:15:49.196Z,0
2017-11-17T09:16:49.176Z,0
2017-11-17T09:17:49.153Z,0
2017-11-17T09:18:49.140Z,0
2017-11-17T09:19:48.850Z,0
2017-11-17T09:20:48.831Z,0
2017-11-17T09:21:48.816Z,0
2017-11-17T09:22:48.793Z,0
2017-11-17T09:23:49.045Z,0
2017-11-17T09:24:49.029Z,0
2017-11-17T09:25:48.736Z,0
2017-11-17T09:26:48.986Z,0
2017-11-17T09:27:48.968Z,0
2017-11-17T09:28:48.956Z,0
2017-11-17T09:29:48.931Z,0
2017-11-17T09:30:48.921Z,0
2017-11-17T09:31:48.903Z,0
2017-11-17T09:32:48.612Z,0
2017-11-17T09:33:48.594Z,0
2017-11-17T09:34:48.574Z,0
2017-11-17T09:35:48.826Z,0
2017-11-17T09:36:48.537Z,0
2017-11-17T09:37:48.794Z,0
2017-11-17T09:38:48.778Z,0
2017-11-17T09:39:48.759Z,0
2017-11-17T09:40:48.472Z,0
2017-11-17T09:41:48.725Z,4.28
2017-11-17T09:42:48.438Z,28.19
2017-11-17T09:43:48.696Z,28.01
2017-11-17T09:44:48.680Z,33.82
2017-11-17T09:45:48.669Z,34.31
2017-11-17T09:46:48.643Z,43.18
2017-11-17T09:47:48.620Z,46.23
2017-11-17T09:48:48.608Z,47.08
2017-11-17T09:49:48.610Z,59.95
2017-11-17T09:50:48.577Z,71.87
2017-11-17T09:51:48.570Z,69.17
2017-11-17T09:52:48.287Z,71.73
2017-11-17T09:53:48.531Z,69.45
2017-11-17T09:54:48.524Z,70.34
2017-11-17T09:55:48.230Z,75.3
2017-11-17T09:56:48.218Z,84.83
2017-11-17T09:57:48.472Z,87.54
2017-11-17T09:58:48.385Z,93.74
2017-11-17T09:59:48.440Z,99.99
2017-11-17T10:00:48.423Z,99.99
2017-11-17T10:01:48.141Z,98.08
2017-11-17T10:02:48.400Z,99.99
2017-11-17T10:03:48.405Z,99.99
2017-11-17T10:04:48.102Z,99.99
2017-11-17T10:05:48.087Z,99.99
2017-11-17T10:06:48.343Z,99.99
2017-11-17T10:07:48.340Z,99.99
2017-11-17T10:08:48.314Z,99.99
2017-11-17T10:09:48.301Z,99.99
2017-11-17T10:10:48.016Z,99.99
2017-11-17T10:11:48.007Z,99.99
2017-11-17T10:12:48.266Z,99.99
2017-11-17T10:13:48.298Z,99.99
2017-11-17T10:14:47.970Z,99.99
2017-11-17T10:15:48.221Z,99.99
2017-11-17T10:16:48.214Z,99.99
2017-11-17T10:17:48.194Z,99.99
2017-11-17T10:18:48.181Z,99.99
2017-11-17T10:19:47.903Z,99.99
2017-11-17T10:20:48.167Z,99.99
2017-11-17T10:21:47.878Z,99.99
2017-11-17T10:22:48.130Z,99.99
2017-11-17T10:23:47.850Z,99.99
2017-11-17T10:24:48.111Z,99.99
2017-11-17T10:25:47.823Z,99.99
2017-11-17T10:26:48.085Z,99.99
2017-11-17T10:27:48.070Z,99.99
2017-11-17T10:28:47.786Z,99.99
2017-11-17T10:29:48.045Z,99.99
2017-11-17T10:30:48.039Z,99.99
2017-11-17T10:31:48.038Z,99.99
2017-11-17T10:32:48.009Z,99.99
2017-11-17T10:33:47.994Z,99.99
2017-11-17T10:34:47.985Z,99.99
2017-11-17T10:35:47.702Z,99.99
2017-11-17T10:36:47.691Z,99.99
2017-11-17T10:37:47.950Z,99.99
2017-11-17T10:38:47.937Z,99.99
2017-11-17T10:39:47.656Z,99.99
2017-11-17T10:40:47.911Z,99.99
2017-11-17T10:41:47.898Z,99.99
2017-11-17T10:42:47.899Z,99.99
2017-11-17T10:43:47.877Z,99.99
2017-11-17T10:44:47.873Z,99.99
2017-11-17T10:45:47.584Z,99.99
2017-11-17T10:46:47.847Z,99.99
2017-11-17T10:47:47.832Z,99.99
2017-11-17T10:48:47.550Z,99.99
2017-11-17T10:49:47.541Z,99.99
2017-11-17T10:50:47.800Z,99.99
2017-11-17T10:51:47.519Z,99.99
2017-11-17T10:52:47.787Z,99.99
2017-11-17T10:53:47.495Z,99.99
2017-11-17T10:54:47.759Z,99.99
2017-11-17T10:55:47.482Z,99.99
2017-11-17T10:56:47.466Z,99.99
2017-11-17T10:57:47.729Z,99.99
2017-11-17T10:58:47.448Z,99.99
2017-11-17T10:59:47.718Z,99.99
2017-11-17T11:00:47.697Z,99.99
2017-11-17T11:01:47.688Z,99.99
2017-11-17T11:02:47.676Z,99.99
2017-11-17T11:03:47.666Z,99.99
2017-11-17T11:04:47.664Z,99.99
2017-11-17T11:05:47.380Z,99.99
2017-11-17T11:06:47.369Z,99.99
2017-11-17T11:07:47.358Z,99.99
2017-11-17T11:08:47.352Z,99.99
2017-11-17T11:09:47.617Z,99.99
2017-11-17T11:10:47.332Z,99.99
2017-11-17T11:11:47.593Z,99.99
2017-11-17T11:12:47.588Z,99.99
2017-11-17T11:13:47.574Z,99.99
2017-11-17T11:14:47.291Z,99.99
2017-11-17T11:15:47.554Z,99.99
2017-11-17T11:16:47.551Z,99.99
2017-11-17T11:17:47.536Z,99.99
2017-11-17T11:18:47.254Z,99.99
2017-11-17T11:19:47.515Z,99.99
2017-11-17T11:20:47.236Z,99.99
2017-11-17T11:21:47.492Z,99.99
2017-11-17T11:22:47.214Z,99.99
2017-11-17T11:23:47.204Z,99.99
2017-11-17T11:24:47.199Z,99.99
2017-11-17T11:25:47.183Z,99.99
2017-11-17T11:26:47.177Z,99.99
2017-11-17T11:27:47.427Z,99.99
2017-11-17T11:28:47.419Z,99.99
2017-11-17T11:29:47.405Z,99.99
2017-11-17T11:30:47.395Z,99.99
2017-11-17T11:31:47.116Z,99.99
2017-11-17T11:32:47.377Z,99.99
2017-11-17T11:33:47.089Z,99.99
2017-11-17T11:34:47.345Z,99.99
2017-11-17T11:35:47.336Z,99.99
2017-11-17T11:36:47.053Z,99.99
2017-11-17T11:37:47.043Z,99.99
2017-11-17T11:38:47.297Z,99.99
2017-11-17T11:39:47.286Z,99.99
2017-11-17T11:40:47.003Z,99.99
2017-11-17T11:41:47.263Z,99.99
2017-11-17T11:42:46.980Z,99.99
2017-11-17T11:43:46.967Z,99.99
2017-11-17T11:44:46.953Z,99.99
2017-11-17T11:45:47.208Z,99.99
2017-11-17T11:46:46.928Z,99.99
2017-11-17T11:47:47.186Z,99.99
2017-11-17T11:48:46.905Z,99.99
2017-11-17T11:49:47.162Z,99.99
2017-11-17T11:50:46.875Z,99.99
2017-11-17T11:51:47.133Z,99.99
2017-11-17T11:52:47.134Z,99.99
2017-11-17T11:53:46.837Z,99.99
2017-11-17T11:54:46.827Z,99.99
2017-11-17T11:55:47.100Z,99.99
2017-11-17T11:56:46.799Z,99.99
2017-11-17T11:57:47.057Z,99.99
2017-11-17T11:58:47.249Z,99.99
2017-11-17T11:59:46.765Z,99.99
2017-11-17T12:00:47.027Z,99.99
2017-11-17T12:01:47.014Z,99.99
2017-11-17T12:02:46.736Z,99.99
2017-11-17T12:03:47.005Z,99.99
2017-11-17T12:04:46.996Z,99.99
2017-11-17T12:05:46.717Z,99.99
2017-11-17T12:06:46.981Z,99.99
2017-11-17T12:07:46.967Z,99.99
2017-11-17T12:08:46.962Z,99.99
2017-11-17T12:09:46.951Z,99.99
2017-11-17T12:10:46.683Z,99.99
2017-11-17T12:11:46.667Z,99.99
2017-11-17T12:12:46.937Z,99.99
2017-11-17T12:13:46.921Z,99.99
2017-11-17T12:14:46.639Z,99.99
2017-11-17T12:15:46.632Z,99.99
2017-11-17T12:16:46.899Z,99.99
2017-11-17T12:17:46.884Z,99.99
2017-11-17T12:18:46.877Z,99.99
2017-11-17T12:19:46.870Z,99.99
2017-11-17T12:20:46.598Z,99.99
2017-11-17T12:21:46.853Z,99.99
2017-11-17T12:22:46.578Z,98
2017-11-17T12:23:46.568Z,96.22
2017-11-17T12:24:46.565Z,94.45
2017-11-17T12:25:46.836Z,92.53
2017-11-17T12:26:46.830Z,90.75
2017-11-17T12:27:46.549Z,87.62
2017-11-17T12:28:46.543Z,81.99
2017-11-17T12:29:46.817Z,76.32
2017-11-17T12:30:46.827Z,74.6
2017-11-17T12:31:46.526Z,72.38
2017-11-17T12:32:46.518Z,72.67
2017-11-17T12:33:46.514Z,71.91
2017-11-17T12:34:46.519Z,74.17
2017-11-17T12:35:46.504Z,74.88
2017-11-17T12:36:46.772Z,74.98
2017-11-17T12:37:46.493Z,74.3
2017-11-17T12:38:46.492Z,74.25
2017-11-17T12:39:46.760Z,75.02
2017-11-17T12:40:46.496Z,74.34
2017-11-17T12:41:46.755Z,70.68
2017-11-17T12:42:46.746Z,70.78
2017-11-17T12:43:46.480Z,71.71
2017-11-17T12:44:46.742Z,73.08
2017-11-17T12:45:46.462Z,72.47
2017-11-17T12:46:46.738Z,74.39
2017-11-17T12:47:46.457Z,74.87
2017-11-17T12:48:46.450Z,75.73
2017-11-17T12:49:46.446Z,75.15
2017-11-17T12:50:46.442Z,74.9
2017-11-17T12:51:46.705Z,72.99
2017-11-17T12:52:46.435Z,73.75
2017-11-17T12:53:46.707Z,73.75
2017-11-17T12:54:46.696Z,71
2017-11-17T12:55:46.691Z,71.06
2017-11-17T12:56:46.415Z,70.39
2017-11-17T12:57:46.410Z,72.24
2017-11-17T12:58:46.679Z,73.68
2017-11-17T12:59:46.401Z,74.95
2017-11-17T13:00:46.397Z,74.47
2017-11-17T13:01:46.667Z,78.55
2017-11-17T13:02:46.667Z,79.8
2017-11-17T13:03:46.648Z,80.33
2017-11-17T13:04:46.654Z,84.5
2017-11-17T13:05:46.650Z,85.27
2017-11-17T13:06:46.368Z,85.17
2017-11-17T13:07:46.632Z,85.99
2017-11-17T13:08:46.349Z,87.9
2017-11-17T13:09:46.617Z,89.67
2017-11-17T13:10:46.340Z,84.92
2017-11-17T13:11:46.608Z,83.72
2017-11-17T13:12:46.324Z,83.48
2017-11-17T13:13:46.588Z,83.52
2017-11-17T13:14:46.582Z,79.72
2017-11-17T13:15:46.580Z,77.23
2017-11-17T13:16:46.572Z,77.71
2017-11-17T13:17:46.293Z,78.42
2017-11-17T13:18:46.288Z,76.75
2017-11-17T13:19:46.286Z,77.29
2017-11-17T13:20:46.547Z,77.25
2017-11-17T13:21:46.268Z,80.32
2017-11-17T13:22:46.265Z,80.45
2017-11-17T13:23:46.538Z,78.47
2017-11-17T13:24:46.522Z,76.27
2017-11-17T13:25:46.244Z,75.89
2017-11-17T13:26:46.241Z,74.93
2017-11-17T13:27:46.234Z,73.77
2017-11-17T13:28:46.506Z,71.76
2017-11-17T13:29:46.226Z,71.28
2017-11-17T13:30:46.496Z,72.47
2017-11-17T13:31:46.478Z,72.95
2017-11-17T13:32:46.200Z,69.68
2017-11-17T13:33:46.201Z,69.68
2017-11-17T13:34:46.191Z,70.23
2017-11-17T13:35:46.452Z,70.99
2017-11-17T13:36:46.449Z,72.88
2017-11-17T13:37:46.444Z,73.74
2017-11-17T13:38:46.166Z,74.27
2017-11-17T13:39:46.436Z,74.85
2017-11-17T13:40:46.158Z,76.64
2017-11-17T13:41:46.150Z,76.98
2017-11-17T13:42:46.419Z,78.8
2017-11-17T13:43:46.408Z,79.33
2017-11-17T13:44:46.402Z,80.1
2017-11-17T13:45:46.399Z,79.33
2017-11-17T13:46:46.389Z,79.1
2017-11-17T13:47:46.396Z,80.73
2017-11-17T13:48:46.107Z,81.65
2017-11-17T13:49:46.373Z,82.51
2017-11-17T13:50:46.093Z,82.89
2017-11-17T13:51:46.137Z,84.19
2017-11-17T13:52:46.074Z,84.85
2017-11-17T13:53:46.065Z,86.29
2017-11-17T13:54:46.324Z,88.87
2017-11-17T13:55:46.057Z,84.81
2017-11-17T13:56:46.306Z,86.15
2017-11-17T13:57:46.301Z,88.54
2017-11-17T13:58:46.020Z,86.3
2017-11-17T13:59:46.113Z,85.82
2017-11-17T14:00:46.006Z,87.73
2017-11-17T14:01:46.272Z,90.11
2017-11-17T14:02:46.249Z,88.49
2017-11-17T14:03:46.238Z,92.12
2017-11-17T14:04:46.226Z,92.6
2017-11-17T14:05:46.219Z,93.98
2017-11-17T14:06:46.224Z,92.46
2017-11-17T14:07:45.924Z,92.36
2017-11-17T14:08:46.189Z,90.93